Time;durP1;ratioP1;P1;durP2;ratioP2;P2;SDS_P1;SDS_P2;PMS_P1;PMS_P2;Temp;Humidity;BMP_temperature;BMP_pressure;BME280_temperature;BME280_humidity;BME280_pressure;Samples;Min_cycle;Max_cycle;Signal;HPM_P1;HPM_P2
2022/01/09 00:00:21;;;;;;;21.52;17.25;;;4.10;99.90;;;;;;5009735;28;20043;-89
2022/01/09 00:02:48;;;;;;;22.45;19.98;;;4.10;99.90;;;;;;5018853;28;20052;-89
2022/01/09 00:05:14;;;;;;;22.40;19.77;;;4.10;99.90;;;;;;5018356;28;20071;-90
2022/01/09 00:07:42;;;;;;;20.63;17.30;;;4.10;99.90;;;;;;4998358;28;20053;-89
2022/01/09 00:10:09;;;;;;;22.70;20.25;;;4.10;99.90;;;;;;5008975;28;20044;-90
2022/01/09 00:12:37;;;;;;;21.48;19.05;;;4.10;99.90;;;;;;5018475;28;20059;-90
2022/01/09 00:15:04;;;;;;;22.73;20.30;;;4.20;99.90;;;;;;5009713;28;20037;-90
2022/01/09 00:17:31;;;;;;;20.20;18.10;;;4.20;99.90;;;;;;4981387;28;20032;-88
2022/01/09 00:19:57;;;;;;;22.70;20.10;;;4.20;99.90;;;;;;5020027;28;20044;-89
2022/01/09 00:22:37;;;;;;;21.80;19.55;;;4.20;99.90;;;;;;4989892;28;20041;-88
2022/01/09 00:25:05;;;;;;;22.45;20.13;;;4.20;99.90;;;;;;5012274;28;20132;-89
2022/01/09 00:27:31;;;;;;;23.05;20.65;;;4.20;99.90;;;;;;5036444;28;20766;-89
2022/01/09 00:29:57;;;;;;;21.95;19.05;;;4.20;99.90;;;;;;5015207;28;20449;-89
2022/01/09 00:32:23;;;;;;;22.83;20.50;;;4.20;99.90;;;;;;4982547;28;20045;-90
2022/01/09 00:34:50;;;;;;;24.38;21.98;;;4.20;99.90;;;;;;4999974;28;20121;-87
2022/01/09 00:37:16;;;;;;;24.23;21.65;;;4.20;99.90;;;;;;5004168;28;20044;-86
2022/01/09 00:39:42;;;;;;;24.05;21.55;;;4.20;99.90;;;;;;4997576;28;20378;-85
2022/01/09 00:42:11;;;;;;;25.17;22.05;;;4.20;99.90;;;;;;5026637;28;20044;-86
2022/01/09 00:44:37;;;;;;;26.00;23.23;;;4.20;99.90;;;;;;5012334;28;20045;-87
2022/01/09 00:47:03;;;;;;;27.02;24.23;;;4.20;99.90;;;;;;5008550;28;20099;-87
2022/01/09 00:49:29;;;;;;;28.80;25.75;;;4.20;99.90;;;;;;4985697;28;20049;-87
2022/01/09 00:51:56;;;;;;;28.70;25.70;;;4.20;99.90;;;;;;5030603;28;20716;-86
2022/01/09 00:54:22;;;;;;;27.17;24.27;;;4.20;99.90;;;;;;5023716;28;20053;-86
2022/01/09 00:56:49;;;;;;;29.00;26.00;;;4.20;99.90;;;;;;5007119;28;20050;-86
2022/01/09 00:59:15;;;;;;;27.77;24.80;;;4.20;99.90;;;;;;5036791;28;20076;-86
2022/01/09 01:01:41;;;;;;;28.83;25.33;;;4.20;99.90;;;;;;5034895;28;20088;-87
2022/01/09 01:04:07;;;;;;;27.67;24.58;;;4.20;99.90;;;;;;5031242;28;20044;-87
2022/01/09 01:06:35;;;;;;;26.90;24.05;;;4.20;99.90;;;;;;4998797;28;20047;-86
2022/01/09 01:09:01;;;;;;;29.35;26.23;;;4.20;99.90;;;;;;5008916;28;20048;-87
2022/01/09 01:11:27;;;;;;;30.25;27.05;;;4.20;99.90;;;;;;5009166;28;20083;-87
2022/01/09 01:13:53;;;;;;;29.77;26.52;;;4.20;99.90;;;;;;4991820;28;20713;-87
2022/01/09 01:16:19;;;;;;;31.70;27.55;;;4.30;99.90;;;;;;5011250;28;20024;-86
2022/01/09 01:18:46;;;;;;;33.20;27.75;;;4.20;99.90;;;;;;5017954;28;20097;-88
2022/01/09 01:21:13;;;;;;;30.58;27.33;;;4.20;99.90;;;;;;5013001;28;20044;-87
2022/01/09 01:23:39;;;;;;;33.20;27.92;;;4.20;99.90;;;;;;5049755;28;20052;-87
2022/01/09 01:26:06;;;;;;;34.33;29.67;;;4.20;99.90;;;;;;5023971;28;20102;-87
2022/01/09 01:28:32;;;;;;;34.50;29.98;;;4.20;99.90;;;;;;5025478;28;20047;-87
2022/01/09 01:30:58;;;;;;;34.88;30.92;;;4.20;99.90;;;;;;5035145;28;20045;-86
2022/01/09 01:33:26;;;;;;;36.72;30.30;;;4.30;99.90;;;;;;5037772;28;20072;-86
2022/01/09 01:35:52;;;;;;;37.83;31.10;;;4.30;99.90;;;;;;5013839;28;20561;-86
2022/01/09 01:38:18;;;;;;;36.17;30.67;;;4.30;99.90;;;;;;5011203;28;20068;-86
2022/01/09 01:40:44;;;;;;;35.88;30.52;;;4.30;99.90;;;;;;5031336;28;20052;-87
2022/01/09 01:43:11;;;;;;;45.33;33.80;;;4.30;99.90;;;;;;4988230;28;20045;-88
2022/01/09 01:45:37;;;;;;;39.05;31.63;;;4.30;99.90;;;;;;5026029;28;20105;-87
2022/01/09 01:48:06;;;;;;;37.50;32.15;;;4.30;99.90;;;;;;5042184;28;20175;-87
2022/01/09 01:50:37;;;;;;;37.70;29.90;;;4.30;99.90;;;;;;5035680;28;20068;-86
2022/01/09 01:53:11;;;;;;;40.42;30.80;;;4.40;99.90;;;;;;5007541;28;20049;-86
2022/01/09 01:55:41;;;;;;;41.75;30.75;;;4.30;99.90;;;;;;5033141;28;20481;-86
2022/01/09 01:58:10;;;;;;;40.05;30.90;;;4.40;99.90;;;;;;5062172;28;20037;-86
2022/01/09 02:00:41;;;;;;;39.42;29.15;;;4.40;99.90;;;;;;5058027;28;20037;-86
2022/01/09 02:03:09;;;;;;;41.00;29.52;;;4.40;99.90;;;;;;5033514;28;20045;-87
2022/01/09 02:05:35;;;;;;;43.28;29.67;;;4.40;99.90;;;;;;5037440;28;20041;-86
2022/01/09 02:08:02;;;;;;;39.78;27.40;;;4.40;99.90;;;;;;5058446;28;20071;-88
2022/01/09 02:10:29;;;;;;;39.05;28.13;;;4.40;99.90;;;;;;5017544;28;20041;-88
2022/01/09 02:12:56;;;;;;;38.40;27.67;;;4.40;99.90;;;;;;5024651;28;20106;-86
2022/01/09 02:15:38;;;;;;;41.55;27.80;;;4.40;99.90;;;;;;5026780;28;20056;-87
2022/01/09 02:18:10;;;;;;;36.45;26.02;;;4.40;99.90;;;;;;5039617;28;20040;-87
2022/01/09 02:20:37;;;;;;;32.45;23.33;;;4.40;99.90;;;;;;4999900;28;20519;-87
2022/01/09 02:23:08;;;;;;;38.42;25.95;;;4.40;99.90;;;;;;5005753;28;20056;-86
2022/01/09 02:25:36;;;;;;;32.13;22.92;;;4.40;99.90;;;;;;5038192;28;20052;-87
2022/01/09 02:28:02;;;;;;;32.80;22.52;;;4.50;99.90;;;;;;5013304;28;20041;-87
2022/01/09 02:30:32;;;;;;;27.77;20.30;;;4.50;99.90;;;;;;5038759;28;20040;-86
2022/01/09 02:33:03;;;;;;;30.00;21.17;;;4.50;99.90;;;;;;5031865;28;20516;-87
2022/01/09 02:35:29;;;;;;;28.35;20.83;;;4.60;99.90;;;;;;5011338;28;20055;-87
2022/01/09 02:37:55;;;;;;;32.35;21.70;;;4.60;99.90;;;;;;5036680;28;20382;-87
2022/01/09 02:40:22;;;;;;;33.00;21.42;;;4.70;99.90;;;;;;5012662;28;20073;-88
2022/01/09 02:42:50;;;;;;;35.70;22.25;;;4.70;99.90;;;;;;4991778;28;20033;-88
2022/01/09 02:45:21;;;;;;;27.83;20.42;;;4.70;99.90;;;;;;4995965;28;20072;-88
2022/01/09 02:47:48;;;;;;;35.60;21.90;;;4.70;99.90;;;;;;5008394;28;20483;-87
2022/01/09 02:53:35;;;;;;;29.98;19.85;;;4.70;99.90;;;;;;5024316;28;20554;-87
2022/01/09 02:55:41;;;;;;;28.60;18.55;;;4.70;99.90;;;;;;5013945;28;20128;-86
2022/01/09 02:58:07;;;;;;;28.13;18.17;;;4.80;99.90;;;;;;5000150;28;20036;-86
2022/01/09 03:00:40;;;;;;;31.30;19.13;;;4.80;99.90;;;;;;5016614;28;20047;-86
2022/01/09 03:03:06;;;;;;;36.05;19.50;;;4.80;99.90;;;;;;5026415;28;20040;-87
2022/01/09 03:05:32;;;;;;;29.98;18.15;;;4.90;99.90;;;;;;5035370;28;20099;-87
2022/01/09 03:07:59;;;;;;;32.90;18.55;;;4.90;99.90;;;;;;4996802;28;20045;-87
2022/01/09 03:10:26;;;;;;;26.75;17.13;;;4.90;99.90;;;;;;5042973;28;20111;-87
2022/01/09 03:12:56;;;;;;;33.50;16.65;;;5.00;99.90;;;;;;5029980;28;20080;-87
2022/01/09 03:15:23;;;;;;;30.27;13.65;;;5.00;99.90;;;;;;4999149;28;20132;-87
2022/01/09 03:17:49;;;;;;;24.42;10.70;;;5.10;99.90;;;;;;5024049;28;20048;-87
2022/01/09 03:20:18;;;;;;;28.40;9.70;;;5.20;99.90;;;;;;5007064;28;20047;-87
2022/01/09 03:22:44;;;;;;;27.00;9.38;;;5.20;99.90;;;;;;5013344;28;20032;-88
2022/01/09 03:25:11;;;;;;;23.70;7.57;;;5.30;99.90;;;;;;5005159;28;20085;-88
2022/01/09 03:27:39;;;;;;;31.55;8.20;;;5.40;99.90;;;;;;5005865;28;20053;-87
2022/01/09 03:30:08;;;;;;;33.78;7.32;;;5.40;99.90;;;;;;5023927;28;20234;-87
2022/01/09 03:32:36;;;;;;;31.42;6.65;;;5.40;99.90;;;;;;5041714;28;20095;-87
2022/01/09 03:35:04;;;;;;;34.47;7.90;;;5.50;99.90;;;;;;5011463;28;20047;-87
2022/01/09 03:37:30;;;;;;;41.25;7.72;;;5.60;99.90;;;;;;5046446;28;20070;-87
2022/01/09 03:39:56;;;;;;;38.38;7.45;;;5.70;99.90;;;;;;5023447;28;20565;-85
2022/01/09 03:42:22;;;;;;;39.00;8.00;;;5.70;99.90;;;;;;4997161;28;20424;-87
2022/01/09 03:44:48;;;;;;;41.55;8.35;;;5.70;99.90;;;;;;5010156;28;20106;-87
2022/01/09 03:47:15;;;;;;;44.28;8.10;;;5.80;99.90;;;;;;5029462;28;20049;-86
2022/01/09 03:49:41;;;;;;;46.45;8.77;;;5.80;99.90;;;;;;5023953;28;20044;-87
2022/01/09 03:52:07;;;;;;;48.60;8.25;;;5.90;99.90;;;;;;5009658;28;20037;-87
2022/01/09 03:54:36;;;;;;;49.70;8.15;;;5.90;99.90;;;;;;5021607;28;20052;-86
2022/01/09 03:57:03;;;;;;;53.72;8.90;;;5.90;99.90;;;;;;5008112;28;20047;-86
2022/01/09 03:59:29;;;;;;;50.47;8.48;;;6.00;99.90;;;;;;5029102;28;20076;-86
2022/01/09 04:01:55;;;;;;;52.75;9.05;;;6.00;99.90;;;;;;5002217;28;20493;-87
2022/01/09 04:04:21;;;;;;;47.53;8.55;;;6.00;99.90;;;;;;4993946;28;20132;-86
2022/01/09 04:06:50;;;;;;;51.65;7.40;;;6.00;99.90;;;;;;5027504;28;20045;-86
2022/01/09 04:09:28;;;;;;;42.05;8.57;;;6.00;99.90;;;;;;5018503;28;20087;-87
2022/01/09 04:12:03;;;;;;;43.83;7.78;;;6.00;99.90;;;;;;5017572;28;20059;-87
2022/01/09 04:14:29;;;;;;;48.42;7.85;;;6.00;99.90;;;;;;5033947;28;20124;-88
2022/01/09 04:16:56;;;;;;;48.85;8.35;;;6.00;99.90;;;;;;5023445;28;20408;-87
2022/01/09 04:19:22;;;;;;;51.92;7.90;;;5.90;99.90;;;;;;5017297;28;20041;-87
2022/01/09 04:21:48;;;;;;;40.97;8.23;;;6.00;99.90;;;;;;5006684;28;20087;-86
2022/01/09 04:24:15;;;;;;;35.10;7.60;;;6.00;99.90;;;;;;5008744;28;20505;-86
2022/01/09 04:26:41;;;;;;;41.25;8.00;;;6.00;99.90;;;;;;4992674;28;20509;-86
2022/01/09 04:29:07;;;;;;;41.03;6.45;;;6.00;99.90;;;;;;5020177;28;20493;-87
2022/01/09 04:31:33;;;;;;;47.30;7.82;;;5.90;99.90;;;;;;5003260;28;20076;-87
2022/01/09 04:33:59;;;;;;;37.85;8.27;;;5.90;99.90;;;;;;5017902;28;20412;-87
2022/01/09 04:36:26;;;;;;;47.03;7.05;;;5.90;99.90;;;;;;5004623;28;20107;-87
2022/01/09 04:38:54;;;;;;;42.17;7.28;;;6.00;99.90;;;;;;5018441;28;20049;-87
2022/01/09 04:41:20;;;;;;;34.90;8.38;;;6.00;99.90;;;;;;5024229;28;20045;-86
2022/01/09 04:43:48;;;;;;;40.78;6.88;;;6.00;99.90;;;;;;5035269;28;20399;-87
2022/01/09 04:46:20;;;;;;;32.65;6.57;;;5.90;99.90;;;;;;5020327;28;20038;-87
2022/01/09 04:48:49;;;;;;;33.28;5.80;;;5.90;99.90;;;;;;5010260;28;20083;-86
2022/01/09 04:51:15;;;;;;;44.92;6.60;;;5.90;99.90;;;;;;5004722;28;20045;-86
2022/01/09 04:53:41;;;;;;;37.08;5.60;;;5.90;99.90;;;;;;4996548;28;20036;-87
2022/01/09 04:56:07;;;;;;;35.80;5.80;;;5.90;99.90;;;;;;5033438;28;20044;-87
2022/01/09 04:58:34;;;;;;;43.75;7.43;;;5.90;99.90;;;;;;5002230;28;20052;-87
2022/01/09 05:01:00;;;;;;;40.83;6.82;;;5.90;99.90;;;;;;5050385;28;20080;-86
2022/01/09 05:03:26;;;;;;;34.97;5.88;;;5.90;99.90;;;;;;4987700;28;20539;-86
2022/01/09 05:05:52;;;;;;;33.97;6.38;;;5.90;99.90;;;;;;5018477;28;20128;-87
2022/01/09 05:08:19;;;;;;;32.33;6.45;;;5.90;99.90;;;;;;5000879;28;20094;-86
2022/01/09 05:10:45;;;;;;;30.20;6.05;;;5.90;99.90;;;;;;5040344;28;20056;-85
2022/01/09 05:13:11;;;;;;;30.63;6.15;;;5.90;99.90;;;;;;5052871;28;20048;-87
2022/01/09 05:15:37;;;;;;;34.78;6.32;;;5.90;99.90;;;;;;5032603;28;20720;-86
2022/01/09 05:18:11;;;;;;;30.33;6.15;;;5.80;99.90;;;;;;5005456;28;20042;-86
2022/01/09 05:20:37;;;;;;;34.65;6.05;;;5.80;99.90;;;;;;5020689;28;20540;-86
2022/01/09 05:23:04;;;;;;;36.70;5.70;;;5.80;99.90;;;;;;4996838;28;20036;-86
2022/01/09 05:25:30;;;;;;;36.20;5.15;;;5.80;99.90;;;;;;5008135;28;20139;-85
2022/01/09 05:27:56;;;;;;;27.42;5.40;;;5.80;99.90;;;;;;5007094;28;20052;-85
2022/01/09 05:30:22;;;;;;;31.42;4.78;;;5.80;99.90;;;;;;5026875;28;20102;-85
2022/01/09 05:32:48;;;;;;;19.23;4.93;;;5.90;99.90;;;;;;5009838;28;20124;-86
2022/01/09 05:35:15;;;;;;;22.92;4.53;;;5.80;99.90;;;;;;5019502;28;20128;-85
2022/01/09 05:37:41;;;;;;;25.25;4.13;;;5.70;99.90;;;;;;5008370;28;20049;-86
2022/01/09 05:40:08;;;;;;;28.48;4.80;;;5.70;99.90;;;;;;5041794;28;20063;-86
2022/01/09 05:42:34;;;;;;;27.25;4.85;;;5.70;99.90;;;;;;5014915;28;20467;-86
2022/01/09 05:45:02;;;;;;;29.05;5.53;;;5.70;99.90;;;;;;5019644;28;20045;-86
2022/01/09 05:47:29;;;;;;;23.95;4.60;;;5.60;99.90;;;;;;5026623;28;20049;-86
2022/01/09 05:49:55;;;;;;;25.27;4.25;;;5.60;99.90;;;;;;5016341;28;20049;-85
2022/01/09 05:52:22;;;;;;;33.53;5.13;;;5.60;99.90;;;;;;5035189;28;20083;-85
2022/01/09 05:54:48;;;;;;;26.92;4.80;;;5.70;99.90;;;;;;5021260;28;20055;-86
2022/01/09 05:57:14;;;;;;;28.02;4.45;;;5.60;99.90;;;;;;5032151;28;20488;-86
2022/01/09 05:59:40;;;;;;;27.33;4.60;;;5.50;99.90;;;;;;5028587;28;20056;-86
2022/01/09 06:02:07;;;;;;;23.45;3.75;;;5.50;99.90;;;;;;5026063;28;20044;-85
2022/01/09 06:04:33;;;;;;;22.00;5.35;;;5.50;99.90;;;;;;5031969;28;20044;-86
2022/01/09 06:06:59;;;;;;;20.63;4.40;;;5.50;99.90;;;;;;5010846;28;20061;-86
2022/01/09 06:09:25;;;;;;;24.90;3.83;;;5.50;99.90;;;;;;5038174;28;20048;-85
2022/01/09 06:11:51;;;;;;;23.33;4.38;;;5.50;99.90;;;;;;5024514;28;20731;-85
2022/01/09 06:14:18;;;;;;;23.80;4.45;;;5.40;99.90;;;;;;4997428;28;20444;-85
2022/01/09 06:16:44;;;;;;;24.92;4.40;;;5.50;99.90;;;;;;5035187;28;20044;-86
2022/01/09 06:19:10;;;;;;;20.85;4.10;;;5.40;99.90;;;;;;5009288;28;20103;-86
2022/01/09 06:21:36;;;;;;;25.55;4.15;;;5.40;99.90;;;;;;4987395;28;20041;-86
2022/01/09 06:24:03;;;;;;;26.30;4.82;;;5.40;99.90;;;;;;5027671;28;20048;-86
2022/01/09 06:26:29;;;;;;;31.92;5.47;;;5.40;99.90;;;;;;5026775;28;20063;-85
2022/01/09 06:28:55;;;;;;;26.55;5.15;;;5.40;99.90;;;;;;5023613;28;20056;-86
2022/01/09 06:31:21;;;;;;;28.67;4.57;;;5.40;99.90;;;;;;5021686;28;20044;-85
2022/01/09 06:33:47;;;;;;;24.98;5.15;;;5.40;99.90;;;;;;5051734;28;20040;-86
2022/01/09 06:36:14;;;;;;;28.45;4.85;;;5.40;99.90;;;;;;4996416;28;20056;-86
2022/01/09 06:38:40;;;;;;;21.65;3.80;;;5.40;99.90;;;;;;5012542;28;20045;-86
2022/01/09 06:41:08;;;;;;;28.25;4.40;;;5.40;99.90;;;;;;5008468;28;20058;-84
2022/01/09 06:43:34;;;;;;;23.95;4.78;;;5.40;99.90;;;;;;5019133;28;20055;-85
2022/01/09 06:46:00;;;;;;;25.35;4.38;;;5.50;99.90;;;;;;5050656;28;20101;-85
2022/01/09 06:48:28;;;;;;;22.73;4.70;;;5.40;99.90;;;;;;5007130;28;20044;-85
2022/01/09 06:50:54;;;;;;;24.20;4.10;;;5.40;99.90;;;;;;5014496;28;20052;-85
2022/01/09 06:53:20;;;;;;;26.50;4.78;;;5.40;99.90;;;;;;4997047;28;20398;-85
2022/01/09 06:55:46;;;;;;;19.42;3.70;;;5.40;99.90;;;;;;5042339;28;20053;-85
2022/01/09 06:58:14;;;;;;;18.58;3.90;;;5.40;99.90;;;;;;5040402;28;20382;-84
2022/01/09 07:00:40;;;;;;;26.55;3.60;;;5.40;99.90;;;;;;5037697;28;20128;-84
2022/01/09 07:03:06;;;;;;;20.00;4.47;;;5.30;99.90;;;;;;5005849;28;20049;-84
2022/01/09 07:05:32;;;;;;;26.67;3.65;;;5.30;99.90;;;;;;5028309;28;20049;-84
2022/01/09 07:07:58;;;;;;;21.25;3.80;;;5.30;99.90;;;;;;5059391;28;20048;-84
2022/01/09 07:10:25;;;;;;;23.48;3.83;;;5.20;99.90;;;;;;5019514;28;20504;-83
2022/01/09 07:12:51;;;;;;;24.27;3.60;;;5.20;99.90;;;;;;5016351;28;20060;-84
2022/01/09 07:15:17;;;;;;;19.92;3.25;;;5.20;99.90;;;;;;5022262;28;20132;-84
2022/01/09 07:17:43;;;;;;;23.25;3.63;;;5.10;99.90;;;;;;5034825;28;20176;-83
2022/01/09 07:20:10;;;;;;;9.80;2.55;;;5.10;99.90;;;;;;5008446;28;20414;-84
2022/01/09 07:22:36;;;;;;;18.23;3.10;;;5.10;99.90;;;;;;5021020;28;20053;-84
2022/01/09 07:25:02;;;;;;;17.25;3.55;;;5.00;99.90;;;;;;5016212;28;20067;-85
2022/01/09 07:27:28;;;;;;;14.48;2.55;;;5.10;99.90;;;;;;5020784;28;20064;-84
2022/01/09 07:29:54;;;;;;;16.17;3.17;;;5.00;99.90;;;;;;5017808;28;20053;-85
2022/01/09 07:32:21;;;;;;;20.80;3.20;;;5.00;99.90;;;;;;5042716;28;20412;-84
2022/01/09 07:34:47;;;;;;;14.60;2.40;;;5.00;99.90;;;;;;5031959;28;20056;-84
2022/01/09 07:37:13;;;;;;;16.75;3.05;;;5.00;99.90;;;;;;5043484;28;20048;-84
2022/01/09 07:39:39;;;;;;;18.27;2.72;;;4.90;99.90;;;;;;5001248;28;20394;-83
2022/01/09 07:42:05;;;;;;;15.93;3.15;;;4.90;99.90;;;;;;5021662;28;20049;-84
2022/01/09 07:44:32;;;;;;;13.10;2.47;;;4.90;99.90;;;;;;5031617;28;20497;-85
2022/01/09 07:46:58;;;;;;;15.10;4.13;;;5.00;99.90;;;;;;5016766;28;20049;-86
2022/01/09 07:49:24;;;;;;;19.90;3.20;;;4.90;99.90;;;;;;5028415;28;20060;-87
2022/01/09 07:51:50;;;;;;;16.77;2.78;;;4.90;99.90;;;;;;4998260;28;20155;-85
2022/01/09 07:54:17;;;;;;;11.07;2.40;;;4.90;99.90;;;;;;5004543;28;20045;-84
2022/01/09 07:56:43;;;;;;;13.35;2.00;;;4.80;99.90;;;;;;4996710;28;20049;-84
2022/01/09 07:59:09;;;;;;;12.70;2.63;;;4.90;99.90;;;;;;5024416;28;20061;-88
2022/01/09 08:01:35;;;;;;;10.48;1.98;;;4.90;99.90;;;;;;4971956;28;20041;-88
2022/01/09 08:04:01;;;;;;;15.23;3.13;;;4.90;99.90;;;;;;4998571;28;20051;-87
2022/01/09 08:06:28;;;;;;;10.10;2.33;;;4.90;99.90;;;;;;4997885;28;20397;-88
2022/01/09 08:08:54;;;;;;;11.60;2.60;;;4.80;99.90;;;;;;5012412;28;20041;-90
2022/01/09 08:11:22;;;;;;;9.50;2.22;;;4.80;99.90;;;;;;5010230;28;20057;-88
2022/01/09 08:13:49;;;;;;;13.05;3.28;;;4.90;99.90;;;;;;5041344;28;20049;-88
2022/01/09 08:16:15;;;;;;;13.70;2.70;;;4.80;99.90;;;;;;5013293;28;20103;-85
2022/01/09 08:18:42;;;;;;;18.45;4.15;;;4.80;99.90;;;;;;4993508;28;20408;-84
2022/01/09 08:21:08;;;;;;;20.65;3.40;;;4.80;99.90;;;;;;5054273;28;20045;-84
2022/01/09 08:23:37;;;;;;;18.65;3.42;;;4.80;99.90;;;;;;5000170;28;20044;-85
2022/01/09 08:26:03;;;;;;;11.00;2.10;;;4.90;99.90;;;;;;5010516;28;20057;-85
2022/01/09 08:28:30;;;;;;;14.23;2.28;;;4.90;99.90;;;;;;5046736;28;20143;-86
2022/01/09 08:30:56;;;;;;;11.57;2.45;;;4.90;99.90;;;;;;5015707;28;20053;-84
2022/01/09 08:33:24;;;;;;;10.80;2.42;;;4.90;99.90;;;;;;5009707;28;20041;-86
2022/01/09 08:35:51;;;;;;;12.40;3.20;;;4.80;99.90;;;;;;5014599;28;20061;-86
2022/01/09 08:38:20;;;;;;;11.98;2.50;;;4.90;99.90;;;;;;5015748;28;20036;-83
2022/01/09 08:40:46;;;;;;;11.65;3.05;;;4.90;99.90;;;;;;5038340;28;20053;-84
2022/01/09 08:43:12;;;;;;;16.13;3.33;;;5.00;99.90;;;;;;5035714;28;20095;-85
2022/01/09 08:45:39;;;;;;;16.85;2.13;;;5.00;99.90;;;;;;5025828;28;20058;-83
2022/01/09 08:48:05;;;;;;;9.50;3.45;;;5.00;99.90;;;;;;4989039;28;20045;-83
2022/01/09 08:50:31;;;;;;;9.23;2.10;;;5.10;99.90;;;;;;5034696;28;20493;-87
2022/01/09 08:52:57;;;;;;;15.85;3.15;;;5.10;99.90;;;;;;5018624;28;20079;-86
2022/01/09 08:55:25;;;;;;;10.18;2.10;;;5.10;99.90;;;;;;5016683;28;20045;-86
2022/01/09 08:57:51;;;;;;;13.60;3.00;;;5.10;99.90;;;;;;5009396;28;20053;-87
2022/01/09 09:00:18;;;;;;;18.30;2.58;;;5.10;99.90;;;;;;5020293;28;20443;-88
2022/01/09 09:02:45;;;;;;;15.55;2.63;;;5.10;99.90;;;;;;5035904;28;20040;-86
2022/01/09 09:05:11;;;;;;;12.95;2.33;;;5.10;99.90;;;;;;5014137;28;20496;-84
2022/01/09 09:07:37;;;;;;;11.98;2.67;;;5.10;99.90;;;;;;5018724;28;20055;-83
2022/01/09 09:10:04;;;;;;;12.25;2.47;;;5.10;99.90;;;;;;5033900;28;20098;-87
2022/01/09 09:12:32;;;;;;;13.73;2.85;;;5.10;99.90;;;;;;5034780;28;20041;-87
2022/01/09 09:15:00;;;;;;;11.32;2.58;;;5.10;99.90;;;;;;5035860;28;20079;-85
2022/01/09 09:17:27;;;;;;;11.07;2.13;;;5.10;99.90;;;;;;5051647;28;20099;-80
2022/01/09 09:19:53;;;;;;;12.43;2.72;;;5.20;99.90;;;;;;5036256;28;20053;-86
2022/01/09 09:22:21;;;;;;;17.15;2.85;;;5.20;99.90;;;;;;5034441;28;20508;-87
2022/01/09 09:24:47;;;;;;;12.93;2.38;;;5.20;99.90;;;;;;5016098;28;20037;-87
2022/01/09 09:27:14;;;;;;;14.63;3.20;;;5.20;99.90;;;;;;5037472;28;20104;-87
2022/01/09 09:29:40;;;;;;;17.27;2.83;;;5.20;99.90;;;;;;5050902;28;20032;-86
2022/01/09 09:32:07;;;;;;;11.55;2.63;;;5.30;99.90;;;;;;5017191;28;20048;-87
2022/01/09 09:34:34;;;;;;;13.50;2.90;;;5.30;99.90;;;;;;5015835;28;20053;-87
2022/01/09 09:37:01;;;;;;;14.68;2.80;;;5.40;99.90;;;;;;5001384;28;20053;-87
2022/01/09 09:39:27;;;;;;;14.25;2.70;;;5.40;99.90;;;;;;5000984;28;20048;-87
2022/01/09 09:41:54;;;;;;;16.00;3.20;;;5.40;99.90;;;;;;5014763;28;20040;-85
2022/01/09 09:44:20;;;;;;;10.52;2.20;;;5.40;99.90;;;;;;5033704;28;20136;-87
2022/01/09 09:46:50;;;;;;;13.48;2.50;;;5.40;99.90;;;;;;4983545;28;20061;-84
2022/01/09 09:49:17;;;;;;;12.88;3.00;;;5.50;99.90;;;;;;5014760;28;20083;-81
2022/01/09 09:51:43;;;;;;;14.85;3.17;;;5.50;99.90;;;;;;5050279;28;20408;-89
2022/01/09 09:54:10;;;;;;;22.48;5.32;;;5.50;99.90;;;;;;5013477;28;20076;-85
2022/01/09 09:56:36;;;;;;;11.18;2.70;;;5.50;99.90;;;;;;5001836;28;20056;-84
2022/01/09 09:59:02;;;;;;;13.23;2.83;;;5.50;99.90;;;;;;5032279;28;20385;-84
2022/01/09 10:01:33;;;;;;;13.32;2.85;;;5.60;99.90;;;;;;5032042;28;20052;-86
2022/01/09 10:04:05;;;;;;;12.00;2.35;;;5.60;99.90;;;;;;5033805;28;20079;-87
2022/01/09 10:06:49;;;;;;;12.40;2.47;;;5.70;99.90;;;;;;5013748;28;20049;-86
2022/01/09 10:09:19;;;;;;;10.45;2.00;;;5.60;99.90;;;;;;5030729;28;20045;-87
2022/01/09 10:11:48;;;;;;;12.00;2.13;;;5.70;99.90;;;;;;5047632;28;20049;-83
2022/01/09 10:14:35;;;;;;;9.32;2.20;;;5.70;99.90;;;;;;5014392;28;20060;-85
2022/01/09 10:17:16;;;;;;;8.50;1.88;;;5.80;99.90;;;;;;5017391;28;20044;-83
2022/01/09 10:19:49;;;;;;;10.38;1.65;;;5.80;99.90;;;;;;5047934;28;20072;-83
2022/01/09 10:22:36;;;;;;;11.18;2.30;;;5.80;99.90;;;;;;5030243;28;20092;-87
2022/01/09 10:25:27;;;;;;;9.07;1.95;;;5.80;99.90;;;;;;5027345;28;20099;-84
2022/01/09 10:28:12;;;;;;;7.75;1.58;;;5.80;99.90;;;;;;5033158;28;20060;-85
2022/01/09 10:30:44;;;;;;;7.88;1.70;;;5.90;99.90;;;;;;5059778;28;20045;-83
2022/01/09 10:33:15;;;;;;;11.02;2.25;;;5.90;99.90;;;;;;5051680;28;20115;-83
2022/01/09 10:35:46;;;;;;;8.23;1.52;;;5.90;99.90;;;;;;5052204;28;20516;-84
2022/01/09 10:38:19;;;;;;;9.90;1.23;;;5.90;99.90;;;;;;5048956;28;20044;-82
2022/01/09 10:40:54;;;;;;;9.18;1.83;;;6.00;99.90;;;;;;5032218;28;20063;-83
2022/01/09 10:43:26;;;;;;;8.38;2.03;;;6.00;99.90;;;;;;5029241;28;20103;-83
2022/01/09 10:45:59;;;;;;;6.90;1.65;;;6.00;99.90;;;;;;5047073;28;20385;-83
2022/01/09 10:48:46;;;;;;;8.50;2.10;;;6.00;99.90;;;;;;5028858;28;20040;-83
2022/01/09 10:51:14;;;;;;;7.30;1.80;;;6.10;99.90;;;;;;4995680;28;20079;-82
2022/01/09 10:53:45;;;;;;;9.68;2.00;;;6.10;99.90;;;;;;5011705;28;20045;-83
2022/01/09 10:56:15;;;;;;;8.88;1.92;;;6.20;99.90;;;;;;5014087;28;20075;-83
2022/01/09 10:58:47;;;;;;;9.65;1.83;;;6.30;99.90;;;;;;5044445;28;20045;-84
2022/01/09 11:01:18;;;;;;;8.50;1.63;;;6.30;99.90;;;;;;5030254;28;20409;-84
2022/01/09 11:03:47;;;;;;;10.77;1.90;;;6.40;99.90;;;;;;5015123;28;20082;-86
2022/01/09 11:06:14;;;;;;;10.75;2.65;;;6.50;99.90;;;;;;5029603;28;20049;-86
2022/01/09 11:08:41;;;;;;;8.00;1.83;;;6.60;99.90;;;;;;5013483;28;20401;-85
2022/01/09 11:11:24;;;;;;;10.13;2.22;;;6.60;99.90;;;;;;5030940;28;20083;-87
2022/01/09 11:13:53;;;;;;;10.18;1.90;;;6.70;99.90;;;;;;5022449;28;20140;-85
2022/01/09 11:16:33;;;;;;;11.15;1.88;;;6.60;99.90;;;;;;5028483;28;20048;-87
2022/01/09 11:19:10;;;;;;;9.95;2.17;;;6.80;99.90;;;;;;4998142;28;20091;-86
2022/01/09 11:22:00;;;;;;;12.90;2.33;;;7.00;99.90;;;;;;5013203;28;20072;-83
2022/01/09 11:24:49;;;;;;;8.25;2.05;;;7.00;99.90;;;;;;5008126;28;20087;-84
2022/01/09 11:27:24;;;;;;;11.23;1.92;;;7.10;99.90;;;;;;5006126;28;20057;-84
2022/01/09 11:30:17;;;;;;;11.68;1.80;;;7.30;99.90;;;;;;5022446;28;20563;-83
2022/01/09 11:32:56;;;;;;;9.32;2.47;;;7.30;99.90;;;;;;5021103;28;20101;-84
2022/01/09 11:35:35;;;;;;;10.30;2.55;;;7.50;99.90;;;;;;5009004;28;20052;-88
2022/01/09 11:38:23;;;;;;;12.82;2.58;;;7.50;99.90;;;;;;5045198;28;20067;-87
2022/01/09 11:40:52;;;;;;;16.05;2.38;;;7.60;99.90;;;;;;5002451;28;20041;-87
2022/01/09 11:43:20;;;;;;;12.48;2.30;;;7.50;99.90;;;;;;5001283;28;20033;-86
2022/01/09 11:46:01;;;;;;;9.63;2.20;;;7.70;99.90;;;;;;5015275;28;20555;-86
2022/01/09 11:48:43;;;;;;;10.20;2.83;;;7.80;99.90;;;;;;5018774;28;20057;-87
2022/01/09 11:51:15;;;;;;;12.60;2.47;;;7.70;99.90;;;;;;5034429;28;20041;-84
2022/01/09 11:53:59;;;;;;;14.77;2.67;;;7.80;99.90;;;;;;4999982;28;20389;-86
2022/01/09 11:56:51;;;;;;;12.13;2.03;;;7.70;99.90;;;;;;5029511;28;20144;-84
2022/01/09 11:59:37;;;;;;;8.30;2.40;;;7.60;99.90;;;;;;5019513;28;20041;-87
2022/01/09 12:02:12;;;;;;;19.98;3.75;;;7.50;99.90;;;;;;5009573;28;20080;-85
2022/01/09 12:04:41;;;;;;;14.88;2.75;;;7.50;99.90;;;;;;5026036;28;20056;-87
2022/01/09 12:07:10;;;;;;;15.80;3.03;;;7.70;99.90;;;;;;5028096;28;20060;-86
2022/01/09 12:09:45;;;;;;;10.35;3.65;;;8.00;99.90;;;;;;5032061;28;20059;-84
2022/01/09 12:12:22;;;;;;;11.75;2.38;;;8.30;99.90;;;;;;5024694;28;20477;-84
2022/01/09 12:14:54;;;;;;;14.95;3.78;;;8.70;99.90;;;;;;5024256;28;20045;-85
2022/01/09 12:17:25;;;;;;;12.95;2.58;;;8.90;99.90;;;;;;5010160;28;20047;-84
2022/01/09 12:20:01;;;;;;;13.05;3.13;;;9.20;99.90;;;;;;5030000;28;20033;-85
2022/01/09 12:25:29;;;;;;;15.35;3.40;;;9.30;99.90;;;;;;5010262;28;20041;-85
2022/01/09 12:27:56;;;;;;;16.83;3.83;;;8.90;99.90;;;;;;5039888;28;20056;-85
2022/01/09 12:30:41;;;;;;;18.08;3.35;;;9.10;99.90;;;;;;5050399;28;20124;-84
2022/01/09 12:33:12;;;;;;;13.95;4.05;;;9.60;99.90;;;;;;5032513;28;20055;-83
2022/01/09 12:35:41;;;;;;;15.52;3.80;;;9.20;99.90;;;;;;5013951;28;20047;-84
2022/01/09 12:38:17;;;;;;;14.90;3.38;;;9.30;99.90;;;;;;5028586;28;20044;-84
2022/01/09 12:40:44;;;;;;;14.98;4.03;;;9.10;99.90;;;;;;5057126;28;20677;-83
2022/01/09 12:43:12;;;;;;;15.73;3.47;;;9.00;99.90;;;;;;5010651;28;20587;-84
2022/01/09 12:45:43;;;;;;;15.30;3.83;;;8.80;99.90;;;;;;5030911;28;20126;-84
2022/01/09 12:48:36;;;;;;;15.75;3.40;;;8.80;99.90;;;;;;5012203;28;20239;-83
2022/01/09 12:51:12;;;;;;;18.38;3.28;;;9.00;99.90;;;;;;5041759;28;20052;-84
2022/01/09 12:53:41;;;;;;;15.35;2.85;;;9.10;99.90;;;;;;5026266;28;20182;-82
2022/01/09 12:56:13;;;;;;;16.00;3.72;;;9.40;99.90;;;;;;5009913;28;20429;-84
2022/01/09 12:58:45;;;;;;;;;;;9.60;99.90;;;;;;4996356;28;20588;-84